x

Slate Island (45136) Wave Buoy

6:00am - Sat 1st Oct 2016 All times are CDT. -5 hours from GMT.

  • Sig Wave height 1.6ft
  • Peak Period 3s
  • Wind
    13mph, 16mph gusts
  • Sea Temp 59°f
  • Air Temp 58°f
  • Sea Pressure 1025.3mb
  • Slate Island
  • Slate Island

More Historic Weather Station data

Upgrade to MSW Pro to gain access to the past 30 days of data for over 8000 Wavebouys and Weather Stations around the globe.

Join Pro

Comparision Forecast

View Surf forecast
   
Sat 10/01 6:00am 1.6ft 3s 13 16 mph 1025.3mb 59f 58f
5:00am 1.3ft 3s 13 16 mph 1025.3mb 59f 59f
4:00am 1.3ft 3s 11 13 mph 1025.7mb 59f 60f
3:00am 1ft 3s 11 13 mph 1025.8mb 59f 60f
2:00am 1.3ft 3s 11
mph
1026.2mb 59f 60f
1:00am 1.3ft 3s 11 13 mph 1026.4mb 59f 60f
12:00am 1ft 3s 13 16 mph 1026.5mb 60f 60f
Fri 09/30 11:00pm 1ft 3s 11 13 mph 1026.8mb 60f 61f
10:00pm 0.7ft 2s 11 13 mph 1026.9mb 60f 61f
9:00pm 0.3ft 2s 11
mph
1027.2mb 60f 62f
8:00pm 0.3ft 4s 9 11 mph 1027.6mb 60f 62f
7:00pm 0.3ft 2s 9
mph
1027.9mb 60f 62f
5:00pm 0.7ft 2s 7
mph
1028.2mb 61f 62f
4:00pm 0.7ft 3s 4 7 mph 1028.4mb 61f 61f
3:00pm 1ft 3s 7 9 mph 1028.8mb 60f 61f
2:00pm 1ft 3s 11 13 mph 1029.6mb 60f 60f
1:00pm 1.3ft 3s 11 13 mph 1030.4mb 60f 57f
12:00pm 1.3ft 3s 11 13 mph 1031.3mb 59f 55f
11:00am 1.6ft 3s 11 13 mph 1032.1mb 59f 53f
10:00am 1.6ft 3s 13 16 mph 1032.5mb 59f 52f
9:00am 1.3ft 3s 13 16 mph 1032.6mb 59f 53f
8:00am 1.3ft 3s 11 16 mph 1032.8mb 59f 52f
7:00am 1.3ft 3s 13 16 mph 1032.4mb 59f 53f
6:00am 1.3ft 3s 13 16 mph 1032.4mb 59f 54f
5:00am 1.3ft 2s 13 16 mph 1032.5mb 59f 54f
4:00am 1.3ft 3s 13 16 mph 1032.5mb 59f 55f
3:00am 1.6ft 3s 16 18 mph 1032.2mb 58f 56f
2:00am 1.6ft 3s 13 16 mph 1031.9mb 58f 57f
1:00am 1.6ft 3s 13 16 mph 1032mb 58f 57f
12:00am 1.6ft 4s 16 18 mph 1032.4mb 58f 57f
Thu 09/29 11:00pm 1.6ft 3s 16 18 mph 1032.8mb 58f 58f
10:00pm 1.6ft 3s 13 18 mph 1033mb 58f 58f
9:00pm 2ft 3s 16 18 mph 1032.9mb 58f 58f
8:00pm 1.6ft 3s 16 18 mph 1032.8mb 58f 58f
7:00pm 1.6ft 3s 16 18 mph 1032.6mb 58f 58f
6:00pm 1.3ft 3s 13 16 mph 1032.4mb 58f 59f
5:00pm 1.6ft 3s 11 13 mph 1032.5mb 58f 60f
4:00pm 1.6ft 3s 11 13 mph 1032.7mb 58f 59f
3:00pm 2ft 3s 11 13 mph 1032.9mb 59f 58f
2:00pm 2ft 3s 13 16 mph 1033.3mb 59f 58f
1:00pm 2.5ft 3s 16 18 mph 1033.5mb 59f 57f
12:00pm 2.5ft 4s 16 18 mph 1033.8mb 59f 56f
11:00am 3ft 4s 16 20 mph 1033.6mb 59f 56f
10:00am 3ft 4s 18 22 mph 1033.5mb 59f 56f
9:00am 2.5ft 4s 20 22 mph 1033.3mb 59f 55f
8:00am 2.5ft 4s 18 20 mph 1032.8mb 59f 54f
7:00am 2.5ft 4s 16 18 mph 1032.6mb 59f 54f
6:00am 2.5ft 4s 18 22 mph 1032mb 59f 54f
5:00am 2.5ft 4s 16 18 mph 1031.3mb 59f 54f
4:00am 2.5ft 3s 13 16 mph 1030.9mb 59f 56f
3:00am 2ft 3s 13 16 mph 1030.4mb 59f 56f
2:00am 2ft 3s 11 13 mph 1030.3mb 59f 56f
1:00am 1.6ft 3s 13 16 mph 1029.7mb 59f 57f
12:00am 2ft 3s 11 13 mph 1029.3mb 59f 57f
Wed 09/28 11:00pm 2.5ft 4s 16 18 mph 1029.1mb 59f 56f
10:00pm 2ft 3s 18 20 mph 1028.9mb 59f 57f
9:00pm 2ft 4s 18 20 mph 1028.2mb 59f 57f
8:00pm 1.6ft 3s 16 18 mph 1027.6mb 59f 57f
7:00pm 1.6ft 3s 16 18 mph 1027.2mb 59f 58f
6:00pm 1.6ft 4s 16 18 mph 1026.4mb 59f 57f
5:00pm 2ft 4s 13 18 mph 1025.8mb 59f 57f
4:00pm 2.5ft 4s 13 18 mph 1024.7mb 59f 56f
3:00pm 2.5ft 4s 16 18 mph 1024.4mb 59f 56f
2:00pm 2.5ft 4s 16 20 mph 1023.8mb 59f 56f
1:00pm 2.5ft 3s 18 20 mph 1023.3mb 59f 56f
12:00pm 2.5ft 4s 16 18 mph 1022.9mb 59f 56f
11:00am 2.5ft 3s 18 20 mph 1022.3mb 59f 55f
10:00am 2.5ft 4s 18 20 mph 1021.6mb 59f 54f
9:00am 2.5ft 4s 16 18 mph 1020.7mb 59f 54f
8:00am 2.5ft 4s 18 20 mph 1019.7mb 59f 54f
7:00am 2.5ft 4s 13 18 mph 1018.6mb 59f 55f
6:00am 3ft 4s 20 22 mph 1017.4mb 59f 54f
5:00am 3ft 4s 20 27 mph 1016.5mb 59f 55f
4:00am 3ft 4s 20 22 mph 1015.2mb 59f 55f
3:00am 3.5ft 4s 20 25 mph 1014.3mb 59f 54f
2:00am 3.5ft 4s 20 25 mph 1013mb 59f 55f
1:00am 4ft 5s 22 25 mph 1012mb 59f 55f
12:00am 4ft 4s 22 25 mph 1010.8mb 59f 56f
Tue 09/27 11:00pm 4.5ft 4s 22 27 mph 1009.8mb 59f 57f
10:00pm 4.5ft 5s 25 29 mph 1008.9mb 59f 57f
9:00pm 4.5ft 4s 25 29 mph 1007.9mb 59f 58f
8:00pm  -   -  27
mph
1006.8mb - 57f
7:00pm 4.5ft 4s 27 31 mph 1005.4mb 59f 58f
6:00pm 3.5ft 4s 25 31 mph 1004.1mb 59f 58f
5:00pm 3.5ft 4s 22 27 mph 1002.7mb 59f 58f
4:00pm 3.5ft 4s 22 25 mph 1001.6mb 59f 57f
3:00pm 3.5ft 8s 22 27 mph 1000.5mb 59f 57f
2:00pm 3.5ft 7s 18 20 mph 999.6mb 59f 58f
1:00pm 3.5ft 8s 18 22 mph 998.8mb 59f 57f